Time;durP1;ratioP1;P1;durP2;ratioP2;P2;SDS_P1;SDS_P2;PMS_P1;PMS_P2;Temp;Humidity;BMP_temperature;BMP_pressure;BME280_temperature;BME280_humidity;BME280_pressure;Samples;Min_cycle;Max_cycle;Signal;HPM_P1;HPM_P2
2022/06/01 00:00:10;;;;;;;8.63;5.40;;;12.40;99.90;;;;;;12199987;29;20103;-84
2022/06/01 00:06:12;;;;;;;7.05;5.53;;;12.40;99.90;;;;;;12216575;29;20104;-84
2022/06/01 00:12:14;;;;;;;7.78;6.43;;;12.50;99.90;;;;;;12204781;29;20107;-83
2022/06/01 00:18:16;;;;;;;9.63;5.72;;;12.40;99.90;;;;;;12192115;29;20064;-84
2022/06/01 00:24:18;;;;;;;7.97;5.35;;;12.40;99.90;;;;;;12180214;29;20147;-84
2022/06/01 00:30:21;;;;;;;8.13;5.28;;;12.40;99.90;;;;;;12195049;29;20063;-84
2022/06/01 00:36:23;;;;;;;7.68;5.80;;;12.40;99.90;;;;;;12186826;29;20119;-84
2022/06/01 00:42:28;;;;;;;7.53;5.30;;;12.30;99.90;;;;;;12192232;29;20056;-84
2022/06/01 00:48:32;;;;;;;8.45;5.20;;;12.30;99.90;;;;;;12198533;29;20063;-84
2022/06/01 00:54:35;;;;;;;10.17;6.77;;;12.30;99.90;;;;;;12192251;29;20452;-84
2022/06/01 01:00:39;;;;;;;11.15;5.60;;;12.30;99.90;;;;;;12221592;29;20063;-84
2022/06/01 01:06:43;;;;;;;10.82;5.95;;;12.10;99.90;;;;;;12208574;29;20056;-83
2022/06/01 01:13:03;;;;;;;10.77;5.20;;;12.00;99.90;;;;;;12196538;29;20085;-84
2022/06/01 01:19:16;;;;;;;9.32;5.32;;;11.90;99.90;;;;;;12193666;29;20203;-84
2022/06/01 01:25:18;;;;;;;7.68;5.63;;;11.90;99.90;;;;;;12216976;29;20416;-84
2022/06/01 01:31:24;;;;;;;8.50;5.53;;;12.00;99.90;;;;;;12209499;29;20067;-84
2022/06/01 01:37:28;;;;;;;6.55;5.40;;;12.00;99.90;;;;;;12207551;29;20142;-84
2022/06/01 01:43:34;;;;;;;8.07;5.97;;;12.00;99.90;;;;;;12190767;29;20052;-84
2022/06/01 01:49:38;;;;;;;8.20;5.72;;;11.90;99.90;;;;;;12203084;29;20135;-83
2022/06/01 01:56:00;;;;;;;8.77;5.95;;;11.90;99.90;;;;;;12205876;29;20071;-84
2022/06/01 02:02:28;;;;;;;9.57;5.97;;;11.90;99.90;;;;;;12195219;29;20123;-83
2022/06/01 02:08:48;;;;;;;7.68;5.72;;;11.90;99.90;;;;;;12189159;29;20056;-83
2022/06/01 02:14:53;;;;;;;9.52;6.32;;;11.70;99.90;;;;;;12202983;29;20051;-84
2022/06/01 02:21:01;;;;;;;7.60;6.03;;;11.70;99.90;;;;;;12212729;29;20047;-83
2022/06/01 02:27:04;;;;;;;8.77;5.82;;;11.80;99.90;;;;;;12185373;29;20127;-83
2022/06/01 02:33:11;;;;;;;8.57;5.80;;;11.70;99.90;;;;;;12213920;29;20188;-83
2022/06/01 02:39:16;;;;;;;8.57;5.78;;;11.70;99.90;;;;;;12206071;29;20421;-83
2022/06/01 02:45:21;;;;;;;7.65;6.10;;;11.70;99.90;;;;;;12180095;29;20052;-84
2022/06/01 02:51:24;;;;;;;7.68;6.13;;;11.70;99.90;;;;;;12181817;29;20531;-84
2022/06/01 02:57:25;;;;;;;7.25;6.03;;;11.80;99.90;;;;;;12181920;29;20191;-84
2022/06/01 03:03:27;;;;;;;10.25;6.22;;;11.70;99.90;;;;;;12184738;29;20107;-84
2022/06/01 03:09:29;;;;;;;9.95;6.60;;;11.70;99.90;;;;;;12190022;29;20100;-84
2022/06/01 03:15:31;;;;;;;8.30;6.55;;;11.80;99.90;;;;;;12194821;29;20463;-83
2022/06/01 03:21:33;;;;;;;7.63;6.45;;;11.80;99.90;;;;;;12187660;29;20186;-83
2022/06/01 03:27:36;;;;;;;8.07;6.88;;;11.60;99.90;;;;;;12199131;29;20170;-84
2022/06/01 03:33:38;;;;;;;8.93;6.97;;;11.70;99.90;;;;;;12183451;29;20139;-83
2022/06/01 03:39:39;;;;;;;7.50;6.70;;;11.70;99.90;;;;;;12195220;29;20048;-83
2022/06/01 03:45:56;;;;;;;9.02;7.28;;;11.70;99.90;;;;;;12178591;29;20087;-83
2022/06/01 03:51:58;;;;;;;10.23;7.43;;;11.60;99.90;;;;;;12175482;29;20059;-84
2022/06/01 03:58:01;;;;;;;9.00;7.05;;;11.60;99.90;;;;;;12186893;29;20196;-83
2022/06/01 04:04:03;;;;;;;10.27;7.43;;;11.50;99.90;;;;;;12200375;29;20139;-83
2022/06/01 04:10:06;;;;;;;8.45;7.00;;;11.40;99.90;;;;;;12176791;29;20553;-83
2022/06/01 04:16:07;;;;;;;9.23;7.22;;;11.40;99.90;;;;;;12196473;29;20203;-83
2022/06/01 04:22:21;;;;;;;9.70;7.72;;;11.40;99.90;;;;;;12189740;29;20060;-84
2022/06/01 04:28:23;;;;;;;8.82;7.75;;;11.10;99.90;;;;;;12206362;29;20481;-83
2022/06/01 04:34:24;;;;;;;12.50;8.40;;;11.00;99.90;;;;;;12194180;29;20150;-83
2022/06/01 04:40:26;;;;;;;11.73;8.82;;;11.10;99.90;;;;;;12198450;29;20076;-83
2022/06/01 04:46:28;;;;;;;11.75;8.90;;;11.10;99.90;;;;;;12176044;29;20060;-83
2022/06/01 04:52:31;;;;;;;13.20;9.43;;;11.20;99.90;;;;;;12174884;29;20492;-83
2022/06/01 04:58:32;;;;;;;11.75;9.98;;;11.30;99.90;;;;;;12200278;29;20079;-85
2022/06/01 05:04:40;;;;;;;13.65;10.45;;;11.20;99.90;;;;;;12207111;29;20044;-84
2022/06/01 05:10:42;;;;;;;12.77;10.73;;;11.30;99.90;;;;;;12196096;29;20143;-84
2022/06/01 05:16:44;;;;;;;14.75;10.77;;;11.30;99.90;;;;;;12201959;29;20052;-85
2022/06/01 05:22:47;;;;;;;14.35;10.30;;;11.40;99.90;;;;;;12199770;29;20048;-84
2022/06/01 05:28:49;;;;;;;14.88;11.25;;;11.50;99.90;;;;;;12185640;29;20083;-85
2022/06/01 05:34:51;;;;;;;15.63;12.10;;;11.60;99.90;;;;;;12189281;29;20056;-83
2022/06/01 05:40:53;;;;;;;14.68;12.07;;;11.70;99.90;;;;;;12190938;29;20417;-85
2022/06/01 05:46:56;;;;;;;15.38;11.80;;;11.70;99.90;;;;;;12186226;29;20107;-84
2022/06/01 05:52:58;;;;;;;15.33;12.33;;;11.60;99.90;;;;;;12197934;29;20549;-85
2022/06/01 05:59:00;;;;;;;15.88;13.15;;;11.60;99.90;;;;;;12182823;29;20135;-83
2022/06/01 06:05:03;;;;;;;15.77;13.10;;;11.60;99.90;;;;;;12187200;29;20441;-84
2022/06/01 06:11:06;;;;;;;20.50;14.05;;;11.60;99.90;;;;;;12175530;29;20187;-84
2022/06/01 06:17:08;;;;;;;17.95;14.25;;;11.70;99.90;;;;;;12186192;29;20135;-84
2022/06/01 06:23:11;;;;;;;19.95;14.27;;;11.70;99.90;;;;;;12192748;29;20718;-84
2022/06/01 06:29:17;;;;;;;18.65;13.95;;;12.00;99.90;;;;;;12211378;29;20052;-85
2022/06/01 06:35:19;;;;;;;16.05;13.25;;;12.10;99.90;;;;;;12198303;29;20055;-84
2022/06/01 06:41:21;;;;;;;17.05;12.88;;;12.10;99.90;;;;;;12184899;29;20063;-84
2022/06/01 06:47:23;;;;;;;16.35;12.55;;;12.20;99.90;;;;;;12189613;29;20052;-84
2022/06/01 06:53:27;;;;;;;17.60;12.63;;;12.20;99.90;;;;;;12199305;29;20062;-84
2022/06/01 06:59:29;;;;;;;14.60;11.40;;;12.30;99.90;;;;;;12185622;29;20146;-83
2022/06/01 07:11:52;;;;;;;11.73;9.18;;;12.70;99.90;;;;;;12198162;29;20501;-84
2022/06/01 07:17:54;;;;;;;14.68;10.77;;;12.70;99.90;;;;;;12183237;29;20044;-84
2022/06/01 07:23:56;;;;;;;11.90;9.57;;;12.90;99.90;;;;;;12178367;29;20055;-83
2022/06/01 07:29:58;;;;;;;11.98;9.95;;;12.80;99.90;;;;;;12195744;29;20052;-84
2022/06/01 07:36:04;;;;;;;10.40;9.25;;;12.80;99.90;;;;;;12194104;29;20206;-84
2022/06/01 07:48:28;;;;;;;12.18;9.50;;;12.80;99.90;;;;;;12188792;29;20064;-85
2022/06/01 07:54:54;;;;;;;10.88;9.40;;;13.10;99.90;;;;;;12189162;29;20052;-85
2022/06/01 08:00:56;;;;;;;11.30;8.95;;;13.10;99.90;;;;;;12208011;29;20052;-84
2022/06/01 08:06:58;;;;;;;13.68;9.68;;;13.10;99.90;;;;;;12178067;29;20087;-85
2022/06/01 08:13:06;;;;;;;9.93;8.25;;;13.10;99.90;;;;;;12171861;29;20605;-85
2022/06/01 08:19:09;;;;;;;9.32;7.85;;;13.30;99.90;;;;;;12183133;29;20048;-85
2022/06/01 08:25:13;;;;;;;11.25;9.10;;;13.30;99.90;;;;;;12194238;29;20544;-85
2022/06/01 08:31:15;;;;;;;9.68;8.15;;;13.40;99.90;;;;;;12155192;29;20059;-84
2022/06/01 08:37:17;;;;;;;12.05;9.15;;;13.70;99.90;;;;;;12177508;29;20056;-85
2022/06/01 08:43:25;;;;;;;11.73;8.55;;;13.70;99.90;;;;;;12189086;29;20053;-84
2022/06/01 08:49:30;;;;;;;10.52;8.13;;;13.90;99.90;;;;;;12173741;29;20134;-85
2022/06/01 08:55:52;;;;;;;10.10;8.35;;;13.70;99.90;;;;;;12186346;29;20530;-84
2022/06/01 09:02:19;;;;;;;14.00;8.30;;;13.60;99.90;;;;;;12186736;29;20056;-87
2022/06/01 09:08:36;;;;;;;10.05;6.28;;;13.80;99.90;;;;;;12231577;29;20041;-84
2022/06/01 09:14:41;;;;;;;8.27;6.10;;;14.40;99.90;;;;;;12189378;29;20420;-86
2022/06/01 09:27:13;;;;;;;6.07;4.57;;;14.30;99.90;;;;;;12204639;29;20052;-85
2022/06/01 09:33:23;;;;;;;9.18;5.05;;;14.50;99.90;;;;;;12186616;29;20195;-84
2022/06/01 09:39:25;;;;;;;6.88;5.45;;;14.30;99.90;;;;;;12181389;29;20055;-85
2022/06/01 09:45:49;;;;;;;11.07;7.03;;;14.20;99.90;;;;;;12185926;29;20493;-84
2022/06/01 09:52:07;;;;;;;9.63;6.93;;;14.10;99.90;;;;;;12195174;29;21152;-85
2022/06/01 10:06:05;;;;;;;9.43;6.47;;;14.60;99.90;;;;;;12199853;29;20235;-86
2022/06/01 10:10:59;;;;;;;6.55;5.93;;;15.40;99.90;;;;;;12205857;29;20084;-86
2022/06/01 10:17:29;;;;;;;7.70;5.47;;;15.00;99.90;;;;;;12178557;29;20505;-85
2022/06/01 10:23:43;;;;;;;6.07;5.28;;;14.70;99.90;;;;;;12179195;29;20087;-87
2022/06/01 10:29:50;;;;;;;9.10;6.97;;;14.30;99.90;;;;;;12183815;29;20048;-85
2022/06/01 10:35:58;;;;;;;8.85;7.28;;;14.00;99.90;;;;;;12186471;29;20307;-83
2022/06/01 10:49:28;;;;;;;14.73;9.90;;;13.50;99.90;;;;;;12104245;29;20138;-84
2022/06/01 10:55:40;;;;;;;9.57;8.40;;;13.80;99.90;;;;;;12183615;29;20055;-83
2022/06/01 11:01:51;;;;;;;12.60;9.55;;;14.10;99.90;;;;;;12200454;29;20517;-83
2022/06/01 11:08:05;;;;;;;11.30;8.60;;;14.50;99.90;;;;;;12187199;29;20063;-84
2022/06/01 11:14:39;;;;;;;8.60;7.60;;;14.80;99.90;;;;;;12189424;29;20059;-85
2022/06/01 11:21:26;;;;;;;11.88;8.10;;;15.00;99.90;;;;;;12179671;29;20180;-83
2022/06/01 11:27:46;;;;;;;9.40;7.28;;;14.80;99.90;;;;;;12157483;29;20123;-85
2022/06/01 11:34:07;;;;;;;11.32;5.47;;;14.80;99.90;;;;;;12174184;29;20123;-86
2022/06/01 11:40:19;;;;;;;6.32;5.00;;;14.50;99.90;;;;;;12183089;29;20048;-85
2022/06/01 11:46:32;;;;;;;4.90;3.92;;;14.20;99.90;;;;;;12181253;29;20497;-83
2022/06/01 11:52:44;;;;;;;6.22;3.45;;;14.70;99.90;;;;;;12175500;29;20056;-85
2022/06/01 11:59:21;;;;;;;5.75;4.00;;;15.30;99.90;;;;;;12186559;29;20056;-85
2022/06/01 12:05:41;;;;;;;5.90;4.55;;;15.40;99.90;;;;;;12196395;29;20052;-85
2022/06/01 12:11:48;;;;;;;5.63;5.00;;;15.50;99.90;;;;;;12173752;29;20115;-84
2022/06/01 12:17:59;;;;;;;5.78;4.40;;;16.30;99.90;;;;;;12184201;29;20155;-86
2022/06/01 12:30:49;;;;;;;5.55;3.78;;;16.90;99.90;;;;;;12205091;29;20475;-85
2022/06/01 12:37:16;;;;;;;5.60;4.38;;;16.30;99.90;;;;;;12180659;29;20150;-86
2022/06/01 12:43:18;;;;;;;5.80;4.20;;;16.10;99.90;;;;;;12182226;29;20143;-87
2022/06/01 12:49:26;;;;;;;7.53;4.18;;;16.30;99.90;;;;;;12201534;29;20080;-85
2022/06/01 12:55:27;;;;;;;3.22;2.50;;;16.10;99.90;;;;;;12182754;29;20187;-85
2022/06/01 13:01:32;;;;;;;5.28;2.70;;;15.50;99.90;;;;;;12190381;29;20056;-83
2022/06/01 13:07:39;;;;;;;7.80;3.63;;;14.50;99.90;;;;;;12198437;29;20057;-86
2022/06/01 13:13:43;;;;;;;7.20;3.70;;;13.80;99.90;;;;;;12203835;29;20063;-85
2022/06/01 13:20:00;;;;;;;3.50;3.13;;;13.70;99.90;;;;;;12211751;29;20084;-86
2022/06/01 13:26:08;;;;;;;5.80;3.10;;;13.40;99.90;;;;;;12218247;29;20104;-86
2022/06/01 13:32:12;;;;;;;4.63;3.30;;;13.20;99.90;;;;;;12194245;29;20493;-85
2022/06/01 13:38:19;;;;;;;3.63;2.00;;;13.20;99.90;;;;;;12193039;29;20052;-85
2022/06/01 13:45:03;;;;;;;2.83;2.03;;;12.80;99.90;;;;;;12182595;29;20111;-85
2022/06/01 13:51:29;;;;;;;4.20;2.83;;;12.60;99.90;;;;;;12179316;29;20068;-85
2022/06/01 13:57:56;;;;;;;4.57;3.10;;;12.90;99.90;;;;;;12195050;29;20783;-85
2022/06/01 14:04:00;;;;;;;3.60;2.70;;;12.90;99.90;;;;;;12180766;29;20489;-85
2022/06/01 14:10:03;;;;;;;3.17;2.53;;;12.90;99.90;;;;;;12210491;29;20492;-86
2022/06/01 14:16:09;;;;;;;3.88;2.80;;;12.80;99.90;;;;;;12187188;29;20068;-85
2022/06/01 14:22:12;;;;;;;3.40;2.58;;;12.90;99.90;;;;;;12182120;29;20059;-85
2022/06/01 14:28:29;;;;;;;3.38;2.30;;;12.60;99.90;;;;;;12185086;29;21684;-82
2022/06/01 14:34:30;;;;;;;1.80;1.42;;;12.30;99.90;;;;;;12184772;29;20059;-81
2022/06/01 14:40:34;;;;;;;3.10;1.30;;;12.10;99.90;;;;;;12181733;29;20072;-81
2022/06/01 14:46:36;;;;;;;2.28;1.10;;;11.80;99.90;;;;;;12189654;29;20132;-83
2022/06/01 14:52:38;;;;;;;2.30;0.90;;;11.70;99.90;;;;;;12178395;29;20063;-83
2022/06/01 14:58:40;;;;;;;1.50;0.88;;;11.60;99.90;;;;;;12195180;29;20056;-83
2022/06/01 15:04:42;;;;;;;1.35;0.80;;;11.70;99.90;;;;;;12181117;29;20556;-82
2022/06/01 15:10:50;;;;;;;1.20;0.65;;;11.90;99.90;;;;;;12183701;29;20056;-83
2022/06/01 15:16:55;;;;;;;1.73;0.70;;;12.00;99.90;;;;;;12203401;29;20111;-84
2022/06/01 15:22:57;;;;;;;1.40;0.70;;;12.30;99.90;;;;;;12181245;29;20048;-85
2022/06/01 15:28:59;;;;;;;3.47;1.00;;;12.40;99.90;;;;;;12194840;29;20107;-84
2022/06/01 15:41:22;;;;;;;1.42;0.80;;;12.60;99.90;;;;;;12191697;29;20063;-84
2022/06/01 15:47:24;;;;;;;1.73;0.93;;;12.80;99.90;;;;;;12188305;29;20060;-84
2022/06/01 15:53:26;;;;;;;3.15;1.27;;;12.80;99.90;;;;;;12223046;29;20056;-85
2022/06/01 15:59:31;;;;;;;2.85;1.30;;;12.80;99.90;;;;;;12188967;29;20091;-85
2022/06/01 16:05:37;;;;;;;2.40;1.60;;;12.90;99.90;;;;;;12198469;29;20060;-85
2022/06/01 16:11:40;;;;;;;3.65;2.00;;;13.10;99.90;;;;;;12178481;29;20147;-84
2022/06/01 16:17:46;;;;;;;4.00;2.10;;;13.10;99.90;;;;;;12181103;29;20067;-85
2022/06/01 16:23:49;;;;;;;5.07;2.13;;;13.10;99.90;;;;;;12192353;29;20056;-84
2022/06/01 16:29:51;;;;;;;2.53;1.60;;;13.40;99.90;;;;;;12193591;29;20115;-85
2022/06/01 16:35:54;;;;;;;3.00;1.70;;;13.40;99.90;;;;;;12199776;29;20537;-85
2022/06/01 16:41:55;;;;;;;2.50;1.40;;;13.30;99.90;;;;;;12183473;29;20560;-85
2022/06/01 16:47:58;;;;;;;4.70;1.90;;;13.10;99.90;;;;;;12185778;29;20048;-85
2022/06/01 16:54:00;;;;;;;5.90;2.20;;;13.10;99.90;;;;;;12187374;29;20055;-84
2022/06/01 17:00:04;;;;;;;3.42;2.22;;;13.00;99.90;;;;;;12179132;29;20063;-84
2022/06/01 17:06:07;;;;;;;3.63;2.95;;;12.70;99.90;;;;;;12191399;29;20441;-84
2022/06/01 17:12:13;;;;;;;3.08;2.28;;;12.60;99.90;;;;;;12192820;29;20116;-85
2022/06/01 17:18:17;;;;;;;5.30;3.28;;;12.50;99.90;;;;;;12197980;29;20080;-83
2022/06/01 17:24:19;;;;;;;5.60;3.33;;;12.40;99.90;;;;;;12198295;29;20079;-84
2022/06/01 17:30:21;;;;;;;3.75;2.92;;;12.40;99.90;;;;;;12182533;29;20127;-84
2022/06/01 17:36:23;;;;;;;4.80;2.00;;;12.10;99.90;;;;;;12193262;29;20139;-85
2022/06/01 17:42:26;;;;;;;3.00;1.50;;;11.80;99.90;;;;;;12195989;29;20144;-87
2022/06/01 17:48:32;;;;;;;2.58;1.67;;;11.40;99.90;;;;;;12186866;29;20472;-88
2022/06/01 17:54:34;;;;;;;2.20;1.52;;;11.70;99.90;;;;;;12199087;29;20060;-87
2022/06/01 18:00:41;;;;;;;5.45;2.53;;;11.10;99.90;;;;;;12205380;29;20052;-86
2022/06/01 18:06:44;;;;;;;3.22;2.42;;;10.60;99.90;;;;;;12191472;29;20110;-86
2022/06/01 18:12:46;;;;;;;4.70;1.98;;;10.30;99.90;;;;;;12198860;29;20048;-85
2022/06/01 18:18:48;;;;;;;5.30;1.90;;;10.40;99.90;;;;;;12179783;29;20094;-85
2022/06/01 18:24:51;;;;;;;2.65;1.55;;;10.60;99.90;;;;;;12187384;29;20055;-86
2022/06/01 18:30:54;;;;;;;3.97;1.15;;;10.70;99.90;;;;;;12179390;29;20534;-87
2022/06/01 18:36:56;;;;;;;2.38;0.63;;;10.70;99.90;;;;;;12180288;29;20208;-86
2022/06/01 18:42:58;;;;;;;1.85;0.95;;;10.90;99.90;;;;;;12180902;29;20180;-86
2022/06/01 18:49:00;;;;;;;7.38;0.85;;;11.00;99.90;;;;;;12192403;29;20662;-86
2022/06/01 18:55:04;;;;;;;1.10;0.70;;;11.00;99.90;;;;;;12196590;29;20180;-86
2022/06/01 19:07:27;;;;;;;2.50;1.10;;;10.80;99.90;;;;;;12195839;29;20048;-86
2022/06/01 19:13:30;;;;;;;4.00;1.15;;;10.80;99.90;;;;;;12186122;29;20060;-85
2022/06/01 19:19:39;;;;;;;2.35;1.10;;;10.70;99.90;;;;;;12169503;29;20052;-86
2022/06/01 19:25:44;;;;;;;2.60;1.05;;;10.70;99.90;;;;;;12172173;29;20140;-85
2022/06/01 19:31:48;;;;;;;3.38;1.20;;;10.70;99.90;;;;;;12195870;29;20615;-86
2022/06/01 19:44:11;;;;;;;5.65;2.42;;;10.60;99.90;;;;;;12192023;29;20056;-85
2022/06/01 19:50:14;;;;;;;6.63;2.05;;;10.80;99.90;;;;;;12178740;29;20060;-85
2022/06/01 19:56:16;;;;;;;3.25;1.20;;;10.80;99.90;;;;;;12193268;29;20048;-85
2022/06/01 20:02:19;;;;;;;4.05;1.50;;;10.70;99.90;;;;;;12200602;29;20493;-84
2022/06/01 20:08:23;;;;;;;2.83;1.60;;;10.60;99.90;;;;;;12180241;29;20072;-83
2022/06/01 20:14:25;;;;;;;2.83;1.90;;;10.50;99.90;;;;;;12179111;29;20064;-85
2022/06/01 20:20:27;;;;;;;4.28;2.42;;;10.60;99.90;;;;;;12193232;29;20092;-84
2022/06/01 20:26:29;;;;;;;4.78;2.65;;;10.60;99.90;;;;;;12191158;29;20183;-85
2022/06/01 20:32:31;;;;;;;4.57;3.10;;;10.70;99.90;;;;;;12178924;29;20139;-84
2022/06/01 20:38:33;;;;;;;5.15;3.42;;;10.70;99.90;;;;;;12177706;29;20219;-83
2022/06/01 20:44:35;;;;;;;5.22;3.65;;;10.80;99.90;;;;;;12184883;29;20412;-83
2022/06/01 20:50:37;;;;;;;4.90;3.72;;;10.80;99.90;;;;;;12184774;29;20866;-83
2022/06/01 20:56:39;;;;;;;5.65;3.80;;;10.80;99.90;;;;;;12203955;29;20052;-84
2022/06/01 21:02:40;;;;;;;6.00;3.90;;;10.70;99.90;;;;;;12184993;29;20052;-82
2022/06/01 21:08:43;;;;;;;6.43;4.03;;;10.60;99.90;;;;;;12182552;29;20423;-85
2022/06/01 21:14:50;;;;;;;5.25;3.95;;;10.60;99.90;;;;;;12184036;29;20147;-84
2022/06/01 21:20:52;;;;;;;5.38;4.18;;;10.50;99.90;;;;;;12196897;29;20492;-83
2022/06/01 21:26:54;;;;;;;5.55;4.60;;;10.40;99.90;;;;;;12183774;29;20044;-85
2022/06/01 21:32:56;;;;;;;6.30;4.47;;;10.30;99.90;;;;;;12198737;29;20491;-83
2022/06/01 21:39:00;;;;;;;8.63;4.70;;;10.40;99.90;;;;;;12203847;29;20079;-84
2022/06/01 21:45:05;;;;;;;6.50;5.45;;;10.50;99.90;;;;;;12183282;29;20055;-83
2022/06/01 21:51:07;;;;;;;6.68;5.13;;;10.60;99.90;;;;;;12186213;29;20195;-84
2022/06/01 21:57:09;;;;;;;6.72;5.15;;;10.60;99.90;;;;;;12209025;29;20110;-85
2022/06/01 22:03:13;;;;;;;6.63;5.78;;;10.70;99.90;;;;;;12203438;29;20060;-83
2022/06/01 22:09:15;;;;;;;6.88;5.47;;;10.60;99.90;;;;;;12195255;29;20101;-84
2022/06/01 22:15:20;;;;;;;8.48;6.68;;;10.60;99.90;;;;;;12181218;29;20088;-84
2022/06/01 22:21:23;;;;;;;7.15;6.45;;;10.60;99.90;;;;;;12204262;29;20052;-85
2022/06/01 22:27:25;;;;;;;8.25;6.90;;;10.40;99.90;;;;;;12195005;29;20052;-83
2022/06/01 22:33:27;;;;;;;7.05;6.35;;;10.20;99.90;;;;;;12196847;29;20747;-84
2022/06/01 22:39:30;;;;;;;8.60;7.15;;;10.20;99.90;;;;;;12190306;29;20501;-83
2022/06/01 22:45:32;;;;;;;8.60;6.95;;;10.10;99.90;;;;;;12194050;29;20079;-84
2022/06/01 22:51:36;;;;;;;8.38;6.90;;;10.10;99.90;;;;;;12190655;29;20063;-83
2022/06/01 22:57:43;;;;;;;9.68;7.55;;;10.00;99.90;;;;;;12175848;29;20481;-83
2022/06/01 23:03:45;;;;;;;10.48;7.53;;;10.00;99.90;;;;;;12185057;29;20087;-83
2022/06/01 23:09:46;;;;;;;8.73;7.45;;;9.90;99.90;;;;;;12195553;29;20082;-83
2022/06/01 23:15:50;;;;;;;8.32;7.22;;;10.00;99.90;;;;;;12174520;29;20075;-84
2022/06/01 23:21:57;;;;;;;9.10;7.97;;;10.10;99.90;;;;;;12185897;29;20083;-85
2022/06/01 23:27:59;;;;;;;9.50;7.72;;;10.00;99.90;;;;;;12179476;29;20056;-83
2022/06/01 23:34:25;;;;;;;8.65;7.68;;;10.00;99.90;;;;;;12175769;29;20056;-84
2022/06/01 23:40:59;;;;;;;12.13;8.35;;;10.00;99.90;;;;;;12190979;29;20456;-83
2022/06/01 23:47:25;;;;;;;10.02;9.02;;;9.80;99.90;;;;;;12170576;29;20138;-85
2022/06/01 23:53:55;;;;;;;11.40;9.30;;;9.70;99.90;;;;;;12185133;29;20477;-84
